Current Conditions
Gedeeltelijk Bewolkt



Rainfall
0.00 (mm) - 0.00 (in)
Pressure
1026.92 (hPa) - 30.32 (inHG)
Visibility

10.0 (km) - 6.2 (miles)
   Temperature
4  °C
39°F
3  °C
Dewpoint
93  %
 Humidity
   Wind Speed
14  km/h
8  kts
9  mph
4.0  m/s
   Wind Direction
 290°
West North
West
   Airport Data
EHLE
Location Lelystad 20 km (12.43 mi)
Metar :EHLE 181925Z AUTO 29008KT 250V330 9999 FEW015CB SCT031 BKN047 04/03 Q1027 TEMPO 7000 -SHRA SCT020CB
Sat 18th January 20:25 pm
   Raw Metar Info
Raw METAR is the most common format in the world for the transmission of observational weather data. It is highly standardized through the International Civil Aviation Organization (ICAO), which allows it to be understood throughout most of the world.
   API Info
Data Provided by
https://www.checkwx.com/weather/EHLE
   © Info
CSS/SVG/PHP scripts were developed by weather34.com for use in the weather34 template © 2015-2020

Guide Info provided by Metar-Wikipedia